createdAt,value
2019-03-28T00:00:34.247Z,83.21
2019-03-28T00:03:08.266Z,83.14
2019-03-28T00:05:41.010Z,83.27
2019-03-28T00:08:13.634Z,83.46
2019-03-28T00:10:46.406Z,83.36
2019-03-28T00:13:19.321Z,83.98
2019-03-28T00:15:53.529Z,84.59
2019-03-28T00:18:26.360Z,84.95
2019-03-28T00:21:02.068Z,85.14
2019-03-28T00:23:55.281Z,85.15
2019-03-28T00:26:37.699Z,85.21
2019-03-28T00:29:07.027Z,85.39
2019-03-28T00:31:41.377Z,85.93
2019-03-28T00:34:17.099Z,86.07
2019-03-28T00:36:49.917Z,85.88
2019-03-28T00:39:28.430Z,86.02
2019-03-28T00:42:06.299Z,86.17
2019-03-28T00:44:43.481Z,86.49
2019-03-28T00:47:27.369Z,85.94
2019-03-28T00:50:00.184Z,85.49
2019-03-28T00:52:35.324Z,85.31
2019-03-28T00:55:08.333Z,85.73
2019-03-28T00:57:42.323Z,85.55
2019-03-28T01:00:16.340Z,85.75
2019-03-28T01:02:49.113Z,86.12
2019-03-28T01:05:21.804Z,86.17
2019-03-28T01:07:59.598Z,86.37
2019-03-28T01:10:33.913Z,86.61
2019-03-28T01:13:06.730Z,87.08
2019-03-28T01:15:41.068Z,87.82
2019-03-28T01:18:13.851Z,88.49
2019-03-28T01:20:46.616Z,89.49
2019-03-28T01:23:21.878Z,89.61
2019-03-28T01:25:54.664Z,90.32
2019-03-28T01:28:27.496Z,90.94
2019-03-28T01:31:00.250Z,91.67
2019-03-28T01:33:32.970Z,92.72
2019-03-28T01:36:07.444Z,93.54
2019-03-28T01:38:40.096Z,93.83
2019-03-28T01:41:12.898Z,94.86
2019-03-28T01:43:45.612Z,95.76
2019-03-28T01:46:18.496Z,96.54
2019-03-28T01:48:55.185Z,96.90
2019-03-28T01:51:28.008Z,97.56
2019-03-28T01:54:03.745Z,98.23
2019-03-28T01:56:39.214Z,98.73
2019-03-28T01:59:14.780Z,98.83
2019-03-28T02:01:49.100Z,99.10
2019-03-28T02:04:24.870Z,98.95
2019-03-28T02:06:59.960Z,99.78
2019-03-28T02:09:32.758Z,99.82
2019-03-28T02:12:09.240Z,99.88
2019-03-28T02:14:46.553Z,99.49
2019-03-28T02:17:25.134Z,100.00
2019-03-28T02:20:04.754Z,100.00
2019-03-28T02:22:42.703Z,100.00
2019-03-28T02:25:15.501Z,100.00
2019-03-28T02:27:52.707Z,100.00
2019-03-28T02:30:35.049Z,100.00
2019-03-28T02:33:07.737Z,100.00
2019-03-28T02:35:40.550Z,100.00
2019-03-28T02:38:14.200Z,100.00
2019-03-28T02:40:53.468Z,100.00
2019-03-28T02:43:28.998Z,100.00
2019-03-28T02:46:03.233Z,100.00
2019-03-28T02:48:38.450Z,100.00
2019-03-28T02:51:11.343Z,100.00
2019-03-28T02:53:45.483Z,100.00
2019-03-28T02:56:21.033Z,100.00
2019-03-28T02:58:55.357Z,100.00
2019-03-28T03:01:30.315Z,100.00
2019-03-28T03:04:05.475Z,100.00
2019-03-28T03:06:38.320Z,100.00
2019-03-28T03:09:14.097Z,100.00
2019-03-28T03:11:49.103Z,100.00
2019-03-28T03:14:21.770Z,100.00
2019-03-28T03:16:56.340Z,100.00
2019-03-28T03:19:29.055Z,100.00
2019-03-28T03:22:02.827Z,100.00
2019-03-28T03:24:36.194Z,100.00
2019-03-28T03:27:09.253Z,100.00
2019-03-28T03:29:42.960Z,100.00
2019-03-28T03:32:15.618Z,100.00
2019-03-28T03:34:48.389Z,100.00
2019-03-28T03:37:21.118Z,100.00
2019-03-28T03:39:53.781Z,100.00
2019-03-28T03:42:26.491Z,100.00
2019-03-28T03:44:59.182Z,100.00
2019-03-28T03:47:31.959Z,100.00
2019-03-28T03:50:05.091Z,100.00
2019-03-28T03:52:37.791Z,100.00
2019-03-28T03:55:10.548Z,100.00
2019-03-28T03:57:43.260Z,100.00
2019-03-28T04:00:20.429Z,100.00
2019-03-28T04:02:53.063Z,100.00
2019-03-28T04:05:25.783Z,100.00
2019-03-28T04:07:59.343Z,100.00
2019-03-28T04:10:32.669Z,100.00
2019-03-28T04:13:06.464Z,100.00
2019-03-28T04:15:39.205Z,100.00
2019-03-28T04:18:11.872Z,100.00
2019-03-28T04:20:44.516Z,100.00
2019-03-28T04:23:17.257Z,100.00
2019-03-28T04:25:49.953Z,100.00
2019-03-28T04:28:31.383Z,100.00
2019-03-28T04:30:57.135Z,100.00
2019-03-28T04:33:29.888Z,100.00
2019-03-28T04:36:02.529Z,100.00
2019-03-28T04:38:35.267Z,100.00
2019-03-28T04:41:07.915Z,100.00
2019-03-28T04:43:40.709Z,100.00
2019-03-28T04:46:13.415Z,100.00
2019-03-28T04:48:46.307Z,100.00
2019-03-28T04:51:19.044Z,100.00
2019-03-28T04:53:51.831Z,100.00
2019-03-28T04:56:24.591Z,100.00
2019-03-28T04:58:58.260Z,100.00
2019-03-28T05:04:34.139Z,100.00
2019-03-28T05:07:07.578Z,100.00
2019-03-28T05:09:41.332Z,100.00
2019-03-28T05:12:14.852Z,100.00
2019-03-28T05:14:48.139Z,100.00
2019-03-28T05:17:21.180Z,100.00
2019-03-28T05:19:54.340Z,100.00
2019-03-28T05:22:27.466Z,100.00
2019-03-28T05:25:00.786Z,100.00
2019-03-28T05:27:33.906Z,100.00
2019-03-28T05:30:10.045Z,100.00
2019-03-28T05:32:45.917Z,100.00
2019-03-28T05:35:18.914Z,100.00
2019-03-28T05:37:53.803Z,100.00
2019-03-28T05:40:27.583Z,100.00
2019-03-28T05:43:01.563Z,100.00
2019-03-28T05:45:34.471Z,100.00
2019-03-28T05:48:07.290Z,100.00
2019-03-28T05:50:40.084Z,100.00
2019-03-28T05:53:13.031Z,100.00
2019-03-28T05:55:45.902Z,100.00
2019-03-28T05:58:18.748Z,100.00
2019-03-28T06:00:51.583Z,100.00
2019-03-28T06:03:24.535Z,100.00
2019-03-28T06:05:57.444Z,100.00
2019-03-28T06:08:30.200Z,100.00
2019-03-28T06:11:03.193Z,100.00
2019-03-28T06:13:35.988Z,100.00
2019-03-28T06:16:08.683Z,100.00
2019-03-28T06:18:41.500Z,100.00
2019-03-28T06:21:14.194Z,100.00
2019-03-28T06:23:46.852Z,100.00
2019-03-28T06:26:19.635Z,100.00
2019-03-28T06:28:52.383Z,100.00
2019-03-28T06:31:25.271Z,100.00
2019-03-28T06:33:58.104Z,100.00
2019-03-28T06:36:35.478Z,100.00
2019-03-28T06:39:14.344Z,100.00
2019-03-28T06:41:51.529Z,100.00
2019-03-28T06:44:24.257Z,100.00
2019-03-28T06:46:57.346Z,99.56
2019-03-28T06:49:31.749Z,99.29
2019-03-28T06:52:09.981Z,99.15
2019-03-28T06:54:43.018Z,98.92
2019-03-28T06:57:18.938Z,98.21
2019-03-28T06:59:51.422Z,97.44
2019-03-28T07:02:27.204Z,95.99
2019-03-28T07:05:00.030Z,95.80
2019-03-28T07:07:33.162Z,95.64
2019-03-28T07:10:10.550Z,95.63
2019-03-28T07:12:47.677Z,95.57
2019-03-28T07:15:20.590Z,95.07
2019-03-28T07:17:53.680Z,94.88
2019-03-28T07:20:26.605Z,95.12
2019-03-28T07:23:00.968Z,94.38
2019-03-28T07:25:36.510Z,94.60
2019-03-28T07:28:09.533Z,94.95
2019-03-28T07:30:42.592Z,95.58
2019-03-28T07:33:16.975Z,95.51
2019-03-28T07:35:50.737Z,94.38
2019-03-28T07:38:23.419Z,94.11
2019-03-28T07:40:59.259Z,93.70
2019-03-28T07:43:32.049Z,93.99
2019-03-28T07:46:05.037Z,93.39
2019-03-28T07:48:37.837Z,92.75
2019-03-28T07:52:03.462Z,91.62
2019-03-28T07:54:54.277Z,91.00
2019-03-28T07:57:46.789Z,90.89
2019-03-28T08:00:19.587Z,90.46
2019-03-28T08:02:54.876Z,90.16
2019-03-28T08:05:28.079Z,89.43
2019-03-28T08:08:01.215Z,88.99
2019-03-28T08:10:34.299Z,89.01
2019-03-28T08:13:14.093Z,89.32
2019-03-28T08:15:59.667Z,89.43
2019-03-28T08:19:07.986Z,89.22
2019-03-28T08:21:44.676Z,88.94
2019-03-28T08:24:22.510Z,89.60
2019-03-28T08:26:59.691Z,89.76
2019-03-28T08:29:34.010Z,89.92
2019-03-28T08:32:15.006Z,90.62
2019-03-28T08:34:50.921Z,91.12
2019-03-28T08:37:27.212Z,90.81
2019-03-28T08:40:10.059Z,90.85
2019-03-28T08:42:44.714Z,91.05
2019-03-28T08:45:18.996Z,90.68
2019-03-28T08:47:52.088Z,90.08
2019-03-28T08:50:24.964Z,88.73
2019-03-28T08:52:57.914Z,85.54
2019-03-28T08:55:31.230Z,85.03
2019-03-28T08:58:33.912Z,84.99
2019-03-28T09:01:30.353Z,85.41
2019-03-28T09:04:03.247Z,84.60
2019-03-28T09:06:36.105Z,83.77
2019-03-28T09:09:11.513Z,82.29
2019-03-28T09:11:44.380Z,82.94
2019-03-28T09:14:34.353Z,83.67
2019-03-28T09:17:08.110Z,83.35
2019-03-28T09:19:48.188Z,82.62
2019-03-28T09:22:21.016Z,83.25
2019-03-28T09:24:53.804Z,82.54
2019-03-28T09:27:26.590Z,82.73
2019-03-28T09:29:59.365Z,83.66
2019-03-28T09:32:35.686Z,83.92
2019-03-28T09:35:09.702Z,84.26
2019-03-28T09:37:42.592Z,84.04
2019-03-28T09:40:15.372Z,84.09
2019-03-28T09:42:48.324Z,84.75
2019-03-28T09:45:21.248Z,84.84
2019-03-28T09:47:54.130Z,84.29
2019-03-28T09:50:27.211Z,84.70
2019-03-28T09:53:00.743Z,83.75
2019-03-28T09:55:34.220Z,82.85
2019-03-28T09:58:22.778Z,82.17
2019-03-28T10:01:02.799Z,80.44
2019-03-28T10:03:34.239Z,79.72
2019-03-28T10:06:07.202Z,80.16
2019-03-28T10:08:39.968Z,79.80
2019-03-28T10:11:12.762Z,80.87
2019-03-28T10:13:45.647Z,81.43
2019-03-28T10:16:18.549Z,82.92
2019-03-28T10:18:51.336Z,82.76
2019-03-28T10:21:24.115Z,83.64
2019-03-28T10:23:56.902Z,83.79
2019-03-28T10:26:29.701Z,83.49
2019-03-28T10:29:02.584Z,83.71
2019-03-28T10:31:35.670Z,83.41
2019-03-28T10:34:08.552Z,82.89
2019-03-28T10:36:41.304Z,81.80
2019-03-28T10:39:14.225Z,79.89
2019-03-28T10:41:47.450Z,80.33
2019-03-28T10:44:20.360Z,79.66
2019-03-28T10:46:53.199Z,78.58
2019-03-28T10:49:26.076Z,79.16
2019-03-28T10:52:04.180Z,80.44
2019-03-28T10:54:40.584Z,80.15
2019-03-28T10:57:28.706Z,79.35
2019-03-28T10:59:48.124Z,78.03
2019-03-28T11:02:21.045Z,76.62
2019-03-28T11:05:21.276Z,75.78
2019-03-28T11:07:54.510Z,74.19
2019-03-28T11:10:30.404Z,73.24
2019-03-28T11:13:42.619Z,72.01
2019-03-28T11:16:18.322Z,71.46
2019-03-28T11:18:53.687Z,69.99
2019-03-28T11:21:50.213Z,69.70
2019-03-28T11:24:26.878Z,69.48
2019-03-28T11:27:02.787Z,70.19
2019-03-28T11:29:36.941Z,70.30
2019-03-28T11:32:09.763Z,70.54
2019-03-28T11:34:44.414Z,71.16
2019-03-28T11:37:25.959Z,72.49
2019-03-28T11:39:57.893Z,73.04
2019-03-28T11:42:34.337Z,75.04
2019-03-28T11:45:09.478Z,76.51
2019-03-28T11:47:44.365Z,76.56
2019-03-28T11:50:17.742Z,76.69
2019-03-28T11:52:51.742Z,76.20
2019-03-28T11:55:24.677Z,75.55
2019-03-28T11:57:57.492Z,73.78
2019-03-28T12:00:30.461Z,72.14
2019-03-28T12:03:03.353Z,71.07
2019-03-28T12:05:36.297Z,71.24
2019-03-28T12:08:10.317Z,72.07
2019-03-28T12:10:43.157Z,73.05
2019-03-28T12:13:17.367Z,73.13
2019-03-28T12:15:50.914Z,73.37
2019-03-28T12:18:25.205Z,73.02
2019-03-28T12:20:58.325Z,72.38
2019-03-28T12:23:31.199Z,70.62
2019-03-28T12:26:05.315Z,71.78
2019-03-28T12:28:38.167Z,71.65
2019-03-28T12:31:10.970Z,70.81
2019-03-28T12:33:43.791Z,71.83
2019-03-28T12:36:16.686Z,71.87
2019-03-28T12:38:49.990Z,72.90
2019-03-28T12:41:22.771Z,75.13
2019-03-28T12:43:55.629Z,78.02
2019-03-28T12:46:28.533Z,78.84
2019-03-28T12:49:01.425Z,79.54
2019-03-28T12:51:34.269Z,80.79
2019-03-28T12:54:14.324Z,82.01
2019-03-28T12:56:47.202Z,82.19
2019-03-28T12:59:20.027Z,83.48
2019-03-28T13:01:55.139Z,84.01
2019-03-28T13:04:27.435Z,84.91
2019-03-28T13:07:00.247Z,84.03
2019-03-28T13:09:33.255Z,83.63
2019-03-28T13:12:08.205Z,83.44
2019-03-28T13:14:41.071Z,83.44
2019-03-28T13:17:14.026Z,83.54
2019-03-28T13:19:47.056Z,83.09
2019-03-28T13:22:19.876Z,83.33
2019-03-28T13:24:55.940Z,83.86
2019-03-28T13:27:28.762Z,84.55
2019-03-28T13:30:02.286Z,83.95
2019-03-28T13:32:41.780Z,83.13
2019-03-28T13:35:10.788Z,82.71
2019-03-28T13:37:43.574Z,82.45
2019-03-28T13:40:17.182Z,82.59
2019-03-28T13:42:52.862Z,81.82
2019-03-28T13:45:27.568Z,83.44
2019-03-28T13:48:05.620Z,84.31
2019-03-28T13:50:38.574Z,85.19
2019-03-28T13:53:13.232Z,86.45
2019-03-28T13:55:46.167Z,86.02
2019-03-28T13:58:18.894Z,85.89
2019-03-28T14:00:54.423Z,84.53
2019-03-28T14:03:26.260Z,82.99
2019-03-28T14:05:59.371Z,81.01
2019-03-28T14:08:38.328Z,80.13
2019-03-28T14:11:18.647Z,80.83
2019-03-28T14:13:51.526Z,80.48
2019-03-28T14:16:24.372Z,81.11
2019-03-28T14:18:57.318Z,80.96
2019-03-28T14:21:36.574Z,81.79
2019-03-28T14:24:12.382Z,80.35
2019-03-28T14:26:45.325Z,81.52
2019-03-28T14:29:20.495Z,82.41
2019-03-28T14:32:10.414Z,81.93
2019-03-28T14:34:49.514Z,81.95
2019-03-28T14:37:22.469Z,81.13
2019-03-28T14:39:56.802Z,79.18
2019-03-28T14:42:32.449Z,79.27
2019-03-28T14:45:05.738Z,79.46
2019-03-28T14:47:38.759Z,79.78
2019-03-28T14:50:15.173Z,80.37
2019-03-28T14:52:48.135Z,80.52
2019-03-28T14:55:21.386Z,80.52
2019-03-28T14:58:11.563Z,79.66
2019-03-28T15:00:58.405Z,79.98
2019-03-28T15:03:34.928Z,80.23
2019-03-28T15:06:12.045Z,80.81
2019-03-28T15:09:19.001Z,80.48
2019-03-28T15:11:30.546Z,80.72
2019-03-28T15:14:48.729Z,80.87
2019-03-28T15:18:33.997Z,80.82
2019-03-28T15:22:21.789Z,81.54
2019-03-28T15:41:55.134Z,84.25
2019-03-28T15:44:29.797Z,84.31
2019-03-28T15:47:34.085Z,84.79
2019-03-28T15:50:15.696Z,85.19
2019-03-28T15:53:13.415Z,86.03
2019-03-28T15:59:37.283Z,87.04
2019-03-28T16:02:11.310Z,86.85
2019-03-28T16:04:44.491Z,87.02
2019-03-28T16:07:18.276Z,86.77
2019-03-28T16:09:52.088Z,86.41
2019-03-28T16:12:31.252Z,86.31
2019-03-28T16:15:22.502Z,86.41
2019-03-28T16:18:00.276Z,86.69
2019-03-28T16:20:34.539Z,85.86
2019-03-28T16:23:10.720Z,85.84
2019-03-28T16:25:44.185Z,85.97
2019-03-28T16:28:18.864Z,86.03
2019-03-28T16:30:51.953Z,86.45
2019-03-28T16:33:29.344Z,86.82
2019-03-28T16:36:02.518Z,86.72
2019-03-28T16:38:39.430Z,86.74
2019-03-28T16:41:27.689Z,87.45
2019-03-28T16:44:00.711Z,87.85
2019-03-28T16:46:34.281Z,88.36
2019-03-28T16:49:10.694Z,88.94
2019-03-28T16:51:44.773Z,90.06
2019-03-28T16:54:17.573Z,91.03
2019-03-28T16:56:50.365Z,91.13
2019-03-28T16:59:24.555Z,91.17
2019-03-28T17:01:57.946Z,91.46
2019-03-28T17:04:30.910Z,91.93
2019-03-28T17:07:09.002Z,91.73
2019-03-28T17:09:42.392Z,90.89
2019-03-28T17:12:15.696Z,90.51
2019-03-28T17:14:51.823Z,91.30
2019-03-28T17:17:24.951Z,90.66
2019-03-28T17:19:59.846Z,90.82
2019-03-28T17:22:32.968Z,91.37
2019-03-28T17:25:24.464Z,91.90
2019-03-28T17:28:01.155Z,92.24
2019-03-28T17:30:34.105Z,92.50
2019-03-28T17:33:07.014Z,92.96
2019-03-28T17:35:39.897Z,92.84
2019-03-28T17:38:16.759Z,93.07
2019-03-28T17:40:52.972Z,92.53
2019-03-28T17:43:25.966Z,92.56
2019-03-28T17:55:08.424Z,93.77
2019-03-28T17:57:41.441Z,94.24
2019-03-28T18:00:15.885Z,94.70
2019-03-28T18:02:48.673Z,94.71
2019-03-28T18:05:21.608Z,94.43
2019-03-28T18:07:54.397Z,94.97
2019-03-28T18:10:27.162Z,95.17
2019-03-28T18:13:00.888Z,95.65
2019-03-28T18:15:33.944Z,95.95
2019-03-28T18:18:06.712Z,96.31
2019-03-28T18:20:39.673Z,96.67
2019-03-28T18:23:12.551Z,96.86
2019-03-28T18:25:47.818Z,96.48
2019-03-28T18:28:20.602Z,96.53
2019-03-28T18:30:53.837Z,96.83
2019-03-28T18:33:26.638Z,96.81
2019-03-28T18:36:00.080Z,96.86
2019-03-28T18:38:33.589Z,96.65
2019-03-28T18:41:06.507Z,96.68
2019-03-28T18:43:42.436Z,97.18
2019-03-28T18:46:15.304Z,97.41
2019-03-28T18:48:48.136Z,97.39
2019-03-28T18:51:22.155Z,97.19
2019-03-28T18:53:55.011Z,97.20
2019-03-28T18:56:28.127Z,97.42
2019-03-28T18:59:08.316Z,97.09
2019-03-28T19:01:40.157Z,97.22
2019-03-28T19:04:15.386Z,97.19
2019-03-28T19:06:48.695Z,97.53
2019-03-28T19:09:22.120Z,97.23
2019-03-28T19:11:56.141Z,97.25
2019-03-28T19:14:31.760Z,97.31
2019-03-28T19:17:05.120Z,97.39
2019-03-28T19:19:39.742Z,97.24
2019-03-28T19:22:13.179Z,97.16
2019-03-28T19:24:46.566Z,96.84
2019-03-28T19:27:21.314Z,96.94
2019-03-28T19:29:54.607Z,97.11
2019-03-28T19:32:30.087Z,97.04
2019-03-28T19:35:03.536Z,97.60
2019-03-28T19:37:37.798Z,97.64
2019-03-28T19:40:13.372Z,97.59
2019-03-28T19:42:46.388Z,97.15
2019-03-28T19:45:39.351Z,96.82
2019-03-28T19:48:23.641Z,96.91
2019-03-28T19:51:09.343Z,96.52
2019-03-28T19:53:42.205Z,97.00
2019-03-28T19:56:15.074Z,97.12
2019-03-28T19:58:47.745Z,97.14
2019-03-28T20:01:20.485Z,96.99
2019-03-28T20:03:53.295Z,96.82
2019-03-28T20:06:26.363Z,96.83
2019-03-28T20:09:00.697Z,96.90
2019-03-28T20:11:35.329Z,97.40
2019-03-28T20:14:08.352Z,96.44
2019-03-28T20:16:41.587Z,96.53
2019-03-28T20:19:17.745Z,97.04
2019-03-28T20:21:51.110Z,96.75
2019-03-28T20:24:25.416Z,96.41
2019-03-28T20:26:59.967Z,96.42
2019-03-28T20:29:33.513Z,96.73
2019-03-28T20:32:08.380Z,97.22
2019-03-28T20:34:42.874Z,98.09
2019-03-28T20:37:16.328Z,97.61
2019-03-28T20:39:51.474Z,97.48
2019-03-28T20:42:24.308Z,97.75
2019-03-28T20:44:58.450Z,98.42
2019-03-28T20:47:32.422Z,99.08
2019-03-28T20:50:07.882Z,99.72
2019-03-28T20:52:40.714Z,99.57
2019-03-28T20:55:13.702Z,100.00
2019-03-28T20:57:46.564Z,100.00
2019-03-28T21:00:36.394Z,100.00
2019-03-28T21:03:09.289Z,100.00
2019-03-28T21:05:42.370Z,100.00
2019-03-28T21:08:15.872Z,100.00
2019-03-28T21:10:48.655Z,99.80
2019-03-28T21:13:21.379Z,100.00
2019-03-28T21:15:54.258Z,99.89
2019-03-28T21:18:27.151Z,99.93
2019-03-28T21:21:00.120Z,100.00
2019-03-28T21:23:33.416Z,100.00
2019-03-28T21:29:10.074Z,99.67
2019-03-28T21:31:49.689Z,99.84
2019-03-28T21:34:17.543Z,99.71
2019-03-28T21:36:50.342Z,99.70
2019-03-28T21:39:23.277Z,100.00
2019-03-28T21:41:55.971Z,100.00
2019-03-28T21:44:28.779Z,100.00
2019-03-28T21:47:01.716Z,100.00
2019-03-28T21:49:34.987Z,100.00
2019-03-28T21:52:08.126Z,100.00
2019-03-28T21:54:40.942Z,100.00
2019-03-28T21:57:14.746Z,100.00
2019-03-28T21:59:48.305Z,100.00
2019-03-28T22:02:24.757Z,100.00
2019-03-28T22:04:57.960Z,100.00
2019-03-28T22:07:30.948Z,100.00
2019-03-28T22:10:03.834Z,100.00
2019-03-28T22:12:36.691Z,100.00
2019-03-28T22:15:10.468Z,100.00
2019-03-28T22:17:43.389Z,100.00
2019-03-28T22:20:16.518Z,100.00
2019-03-28T22:22:50.196Z,100.00
2019-03-28T22:25:25.350Z,100.00
2019-03-28T22:27:58.444Z,100.00
2019-03-28T22:30:31.491Z,100.00
2019-03-28T22:33:04.411Z,100.00
2019-03-28T22:35:37.354Z,100.00
2019-03-28T22:38:10.129Z,100.00
2019-03-28T22:40:43.954Z,100.00
2019-03-28T22:43:17.045Z,100.00
2019-03-28T22:45:49.934Z,100.00
2019-03-28T22:48:22.709Z,100.00
2019-03-28T22:50:55.529Z,100.00
2019-03-28T22:53:28.321Z,100.00
2019-03-28T22:56:01.129Z,100.00
2019-03-28T22:58:34.354Z,100.00
2019-03-28T23:01:07.949Z,100.00
2019-03-28T23:03:40.788Z,100.00
2019-03-28T23:06:13.551Z,100.00
2019-03-28T23:08:46.329Z,100.00
2019-03-28T23:11:18.987Z,100.00
2019-03-28T23:13:54.785Z,100.00
2019-03-28T23:16:28.216Z,100.00
2019-03-28T23:19:01.484Z,100.00
2019-03-28T23:21:34.189Z,100.00
2019-03-28T23:24:06.820Z,100.00
2019-03-28T23:26:39.643Z,100.00
2019-03-28T23:29:12.509Z,100.00
2019-03-28T23:31:45.313Z,100.00
2019-03-28T23:34:18.053Z,100.00
2019-03-28T23:36:50.873Z,100.00
2019-03-28T23:39:23.597Z,100.00
2019-03-28T23:41:56.306Z,100.00
2019-03-28T23:44:29.087Z,100.00
2019-03-28T23:47:01.803Z,100.00
2019-03-28T23:49:34.489Z,100.00
2019-03-28T23:52:07.209Z,100.00
2019-03-28T23:54:39.974Z,100.00
2019-03-28T23:57:12.685Z,100.00
2019-03-28T23:59:45.477Z,100.00
